Terminal Aerodrome Forecast
Issued by NWS Houston/Galveston, TX

Home | Current Version | Previous Version | Text Only | Print | Product List | Glossary On
Versions: 1 2 3 4 5 6 7 8 9 10 11 12 13 14 15 16 17 18 19 20 21 22 23 24 25 26 27 28 29 30 31 32 33 34 35 36 37 38 39 40 41 42 43 44 45 46 47
000
FTUS44 KHGX 220525
TAFCLL
TAF
KCLL 220525Z 2206/2306 12009KT P6SM SCT010 BKN016 OVC040
     FM221200 13012KT P6SM VCSH OVC012
     FM221800 14015G22KT P6SM VCTS BKN015 OVC025CB
      TEMPO 2219/2223 TSRA
     FM230000 14012KT P6SM BKN025 OVC050
     FM230300 12012KT P6SM VCTS OVC020CB
      TEMPO 2303/2306 VRB20G30KT 2SM TSRA BR OVC015CB=

USA.gov is the U.S. government's official web portal to all federal, state and local government web resources and services.